sensor_id;sensor_type;location;lat;lon;timestamp;temperature;humidity
7123;DHT22;3603;50.148;8.430;2023-06-22T16:58:46;18.70;99.90
7123;DHT22;3603;50.148;8.430;2023-06-22T17:50:03;19.30;99.90
7123;DHT22;3603;50.148;8.430;2023-06-22T17:52:29;19.50;99.90
7123;DHT22;3603;50.148;8.430;2023-06-22T17:54:55;19.80;99.90
7123;DHT22;3603;50.148;8.430;2023-06-22T18:09:37;20.60;99.90
7123;DHT22;3603;50.148;8.430;2023-06-22T18:21:50;20.10;99.90
7123;DHT22;3603;50.148;8.430;2023-06-22T18:24:16;20.10;99.90
7123;DHT22;3603;50.148;8.430;2023-06-22T18:26:42;20.20;99.90
7123;DHT22;3603;50.148;8.430;2023-06-22T19:03:30;19.80;99.90
7123;DHT22;3603;50.148;8.430;2023-06-22T19:05:58;19.80;99.90
7123;DHT22;3603;50.148;8.430;2023-06-22T19:08:24;19.60;99.90
7123;DHT22;3603;50.148;8.430;2023-06-22T19:10:50;19.80;99.90
7123;DHT22;3603;50.148;8.430;2023-06-22T19:15:41;19.40;99.90
7123;DHT22;3603;50.148;8.430;2023-06-22T19:18:17;19.40;99.90
7123;DHT22;3603;50.148;8.430;2023-06-22T19:20:45;19.10;99.90
7123;DHT22;3603;50.148;8.430;2023-06-22T19:23:28;19.20;99.90
7123;DHT22;3603;50.148;8.430;2023-06-22T19:25:55;19.30;99.90
7123;DHT22;3603;50.148;8.430;2023-06-22T19:28:24;19.30;99.90
7123;DHT22;3603;50.148;8.430;2023-06-22T19:30:53;19.30;99.90
7123;DHT22;3603;50.148;8.430;2023-06-22T19:38:14;19.10;99.90
7123;DHT22;3603;50.148;8.430;2023-06-22T19:40:40;19.10;99.90
7123;DHT22;3603;50.148;8.430;2023-06-22T19:43:06;19.00;99.90
7123;DHT22;3603;50.148;8.430;2023-06-22T19:57:42;19.00;99.90
7123;DHT22;3603;50.148;8.430;2023-06-22T20:00:09;19.00;99.90
7123;DHT22;3603;50.148;8.430;2023-06-22T20:02:39;19.00;99.90
7123;DHT22;3603;50.148;8.430;2023-06-22T20:05:07;19.00;99.90
7123;DHT22;3603;50.148;8.430;2023-06-22T20:07:37;19.10;99.90
7123;DHT22;3603;50.148;8.430;2023-06-22T20:12:33;19.20;99.90
7123;DHT22;3603;50.148;8.430;2023-06-22T20:15:14;19.10;99.90
7123;DHT22;3603;50.148;8.430;2023-06-22T20:17:41;19.10;99.90
7123;DHT22;3603;50.148;8.430;2023-06-22T20:20:22;19.00;99.90
7123;DHT22;3603;50.148;8.430;2023-06-22T20:22:48;19.00;99.90
7123;DHT22;3603;50.148;8.430;2023-06-22T20:25:17;18.90;99.90
7123;DHT22;3603;50.148;8.430;2023-06-22T20:27:43;18.90;99.90
7123;DHT22;3603;50.148;8.430;2023-06-22T20:30:15;19.00;99.90
7123;DHT22;3603;50.148;8.430;2023-06-22T20:32:51;18.90;99.90
7123;DHT22;3603;50.148;8.430;2023-06-22T20:35:17;19.00;99.90
7123;DHT22;3603;50.148;8.430;2023-06-22T20:37:44;19.00;99.90
7123;DHT22;3603;50.148;8.430;2023-06-22T20:40:10;19.00;99.90
7123;DHT22;3603;50.148;8.430;2023-06-22T20:42:36;19.10;99.90
7123;DHT22;3603;50.148;8.430;2023-06-22T20:45:02;19.20;99.90
7123;DHT22;3603;50.148;8.430;2023-06-22T20:47:28;19.10;99.90
7123;DHT22;3603;50.148;8.430;2023-06-22T20:49:54;19.00;99.90
7123;DHT22;3603;50.148;8.430;2023-06-22T20:52:25;18.90;99.90
7123;DHT22;3603;50.148;8.430;2023-06-22T20:54:50;18.80;99.90
7123;DHT22;3603;50.148;8.430;2023-06-22T20:57:17;18.80;99.90
7123;DHT22;3603;50.148;8.430;2023-06-22T20:59:43;18.80;99.90
7123;DHT22;3603;50.148;8.430;2023-06-22T21:02:09;18.90;99.90
7123;DHT22;3603;50.148;8.430;2023-06-22T21:04:34;18.90;99.90
7123;DHT22;3603;50.148;8.430;2023-06-22T21:07:00;18.80;99.90
7123;DHT22;3603;50.148;8.430;2023-06-22T21:09:26;18.80;99.90
7123;DHT22;3603;50.148;8.430;2023-06-22T21:11:51;18.80;99.90
7123;DHT22;3603;50.148;8.430;2023-06-22T21:14:18;18.80;99.90
7123;DHT22;3603;50.148;8.430;2023-06-22T21:19:09;18.80;99.90
7123;DHT22;3603;50.148;8.430;2023-06-22T21:21:35;18.80;99.90
7123;DHT22;3603;50.148;8.430;2023-06-22T21:24:03;18.70;99.90
7123;DHT22;3603;50.148;8.430;2023-06-22T21:26:28;18.70;99.90
7123;DHT22;3603;50.148;8.430;2023-06-22T21:28:54;18.50;99.90
7123;DHT22;3603;50.148;8.430;2023-06-22T21:31:19;18.70;99.90
7123;DHT22;3603;50.148;8.430;2023-06-22T21:33:45;18.70;99.90
7123;DHT22;3603;50.148;8.430;2023-06-22T21:36:10;18.70;99.90
7123;DHT22;3603;50.148;8.430;2023-06-22T21:38:36;18.60;99.90
7123;DHT22;3603;50.148;8.430;2023-06-22T21:41:01;18.50;99.90
7123;DHT22;3603;50.148;8.430;2023-06-22T21:43:27;18.40;99.90
7123;DHT22;3603;50.148;8.430;2023-06-22T21:45:52;18.30;99.90
7123;DHT22;3603;50.148;8.430;2023-06-22T22:07:47;18.00;99.90
7123;DHT22;3603;50.148;8.430;2023-06-22T22:10:12;18.10;99.90
7123;DHT22;3603;50.148;8.430;2023-06-22T22:15:06;17.90;99.90
